Terminal Aerodrome Forecast
Issued by NWS Cleveland, OH

Home | Current Version | Previous Version | Graphics & Text | Print | Product List | Glossary Off
Versions: 1 2 3 4 5 6 7 8 9 10 11 12 13 14 15

000
FTUS41 KCLE 222155 AAA
TAFTOL
TAF AMD
KTOL 222155Z 2222/2318 22012G20KT P6SM VCSH BKN080
      TEMPO 2222/2223 3SM TSRA OVC050CB
     FM230000 21012KT P6SM BKN060
     FM230700 21012KT P6SM -SHRA SCT015 OVC025
     FM231000 21010KT 6SM -SHRA VCTS BKN015CB OVC025
     FM231600 24012KT P6SM -SHRA VCTS OVC015CB=

USA.gov is the U.S. government's official web portal to all federal, state and local government web resources and services.